Dongola, Kentucky
Current Conditions -  °F | °C
As of 8:55 AM on Thursday 23 Oct 2014 (Local Time) from KLNP Reporting Station
Overcast Overcast  
Wind Chill: 43°   Ceiling: 1800
Heat Index: 43°   Visibility: 10mi
Dew Point: 41°   Wind: 3mph
Humidity: 93%   Direction: 350°N
Pressure: 30.21"   Gusts: NA
Location:  37.1283°N, 82.8498°W
Report Text: KLNP 231255Z AUTO 35003KT 10SM OVC018 06/05 A3021 RMK AO2
Loading
Personal Weather Stations






























Interactive Weather Map
Tropical Storm Tracking
New forecast layout! Learn more

10-Day Weather Forecast

Advertisements
Track Severe Weather on mobile